Time;durP1;ratioP1;P1;durP2;ratioP2;P2;SDS_P1;SDS_P2;PMS_P1;PMS_P2;Temp;Humidity;BMP_temperature;BMP_pressure;BME280_temperature;BME280_humidity;BME280_pressure;Samples;Min_cycle;Max_cycle;Signal;HPM_P1;HPM_P2
2022/07/12 00:02:13;;;;;;;3.77;1.90;;;;;;;;;;5049770;28;20450;-60
2022/07/12 00:04:39;;;;;;;5.13;1.70;;;;;;;;;;5050115;28;20051;-59
2022/07/12 00:07:05;;;;;;;3.67;2.10;;;;;;;;;;5050261;28;20045;-59
2022/07/12 00:09:31;;;;;;;4.87;3.13;;;;;;;;;;5050379;28;20075;-59
2022/07/12 00:11:58;;;;;;;3.97;2.57;;;;;;;;;;5050085;28;20136;-59
2022/07/12 00:14:24;;;;;;;3.47;2.23;;;;;;;;;;5050026;28;20059;-59
2022/07/12 00:16:51;;;;;;;4.17;2.00;;;;;;;;;;5049468;28;20124;-59
2022/07/12 00:19:17;;;;;;;5.07;2.10;;;;;;;;;;5049854;28;20048;-59
2022/07/12 00:21:43;;;;;;;2.23;1.23;;;;;;;;;;5049601;28;20049;-59
2022/07/12 00:24:09;;;;;;;4.17;1.83;;;;;;;;;;5049757;28;20083;-59
2022/07/12 00:26:35;;;;;;;4.83;2.70;;;;;;;;;;5049832;28;20048;-58
2022/07/12 00:29:01;;;;;;;3.30;1.87;;;;;;;;;;5049296;28;20118;-58
2022/07/12 00:31:27;;;;;;;4.43;2.00;;;;;;;;;;5049447;28;20084;-59
2022/07/12 00:33:53;;;;;;;2.00;1.20;;;;;;;;;;5049637;28;20048;-59
2022/07/12 00:36:20;;;;;;;2.83;1.73;;;;;;;;;;5049326;28;20075;-59
2022/07/12 00:38:46;;;;;;;11.63;2.90;;;;;;;;;;5049375;28;20098;-59
2022/07/12 00:41:12;;;;;;;3.60;2.03;;;;;;;;;;5049880;28;20048;-59
2022/07/12 00:43:38;;;;;;;3.30;2.10;;;;;;;;;;5048375;28;20065;-59
2022/07/12 00:46:04;;;;;;;4.00;2.10;;;;;;;;;;5049394;28;20049;-59
2022/07/12 00:48:32;;;;;;;2.60;1.40;;;;;;;;;;5049385;28;20037;-59
2022/07/12 00:50:58;;;;;;;1.63;0.90;;;;;;;;;;5048792;28;20098;-60
2022/07/12 00:53:25;;;;;;;1.57;1.00;;;;;;;;;;5049121;28;20450;-59
2022/07/12 00:55:58;;;;;;;2.00;1.10;;;;;;;;;;5049090;28;20045;-59
2022/07/12 00:58:24;;;;;;;2.75;1.25;;;;;;;;;;5049012;28;20049;-60
2022/07/12 01:00:51;;;;;;;2.73;1.30;;;;;;;;;;5051223;28;20051;-59
2022/07/12 01:03:17;;;;;;;5.50;2.10;;;;;;;;;;5059137;28;20082;-59
2022/07/12 01:05:44;;;;;;;36.63;4.10;;;;;;;;;;5056958;28;20503;-59
2022/07/12 01:08:11;;;;;;;3.93;2.27;;;;;;;;;;5059749;28;20047;-59
2022/07/12 01:10:38;;;;;;;3.73;2.23;;;;;;;;;;5056730;28;20053;-59
2022/07/12 01:13:04;;;;;;;6.17;2.80;;;;;;;;;;5058417;28;20460;-59
2022/07/12 01:15:30;;;;;;;15.97;4.90;;;;;;;;;;5051037;28;20124;-60
2022/07/12 01:17:57;;;;;;;13.33;4.13;;;;;;;;;;5054094;28;20087;-60
2022/07/12 01:20:24;;;;;;;12.70;4.43;;;;;;;;;;5060080;28;20049;-59
2022/07/12 01:22:54;;;;;;;4.60;3.03;;;;;;;;;;5054680;28;20040;-59
2022/07/12 01:25:20;;;;;;;13.90;3.60;;;;;;;;;;5051157;28;20040;-59
2022/07/12 01:27:46;;;;;;;4.97;2.80;;;;;;;;;;5048107;28;20441;-59
2022/07/12 01:30:12;;;;;;;5.67;2.97;;;;;;;;;;5062146;28;20106;-59
2022/07/12 01:32:39;;;;;;;4.47;2.67;;;;;;;;;;5051279;28;20037;-60
2022/07/12 01:35:06;;;;;;;4.53;2.60;;;;;;;;;;5060138;28;20067;-60
2022/07/12 01:37:35;;;;;;;8.77;3.50;;;;;;;;;;5053924;28;20040;-59
2022/07/12 01:40:02;;;;;;;22.03;2.73;;;;;;;;;;5059155;28;20083;-59
2022/07/12 01:42:30;;;;;;;16.50;4.17;;;;;;;;;;5058031;28;20064;-59
2022/07/12 01:44:56;;;;;;;5.43;2.93;;;;;;;;;;5055381;28;20040;-58
2022/07/12 01:47:23;;;;;;;3.97;2.37;;;;;;;;;;5058450;28;20083;-60
2022/07/12 01:49:49;;;;;;;3.50;1.60;;;;;;;;;;5061316;28;20142;-60
2022/07/12 01:52:15;;;;;;;4.07;2.00;;;;;;;;;;5058707;28;20048;-60
2022/07/12 01:54:42;;;;;;;4.40;2.20;;;;;;;;;;5056981;28;20048;-59
2022/07/12 01:57:08;;;;;;;7.30;3.07;;;;;;;;;;5057534;28;20045;-59
2022/07/12 01:59:35;;;;;;;5.23;2.37;;;;;;;;;;5058648;28;20431;-59
2022/07/12 02:02:02;;;;;;;28.73;4.80;;;;;;;;;;5056454;28;20049;-59
2022/07/12 02:04:28;;;;;;;4.87;2.87;;;;;;;;;;5059008;28;20406;-59
2022/07/12 02:06:55;;;;;;;6.00;2.97;;;;;;;;;;5062258;28;20068;-58
2022/07/12 02:09:21;;;;;;;11.40;3.20;;;;;;;;;;5063278;28;20041;-59
2022/07/12 02:11:47;;;;;;;9.73;4.57;;;;;;;;;;5063634;28;20036;-59
2022/07/12 02:14:13;;;;;;;94.30;6.20;;;;;;;;;;5059613;28;20037;-59
2022/07/12 02:16:40;;;;;;;32.53;3.83;;;;;;;;;;5062780;28;20041;-59
2022/07/12 02:19:06;;;;;;;28.90;4.10;;;;;;;;;;5060988;28;20046;-59
2022/07/12 02:21:33;;;;;;;27.80;3.47;;;;;;;;;;5061605;28;20052;-59
2022/07/12 02:23:59;;;;;;;89.07;6.23;;;;;;;;;;5062264;28;20075;-59
2022/07/12 02:26:25;;;;;;;34.23;4.17;;;;;;;;;;5060877;28;20041;-59
2022/07/12 02:28:51;;;;;;;31.50;3.30;;;;;;;;;;5059904;28;20044;-59
2022/07/12 02:31:17;;;;;;;50.83;3.20;;;;;;;;;;5054047;28;20509;-60
2022/07/12 02:33:43;;;;;;;74.27;3.90;;;;;;;;;;5051348;28;20044;-60
2022/07/12 02:36:10;;;;;;;60.70;3.27;;;;;;;;;;5051310;28;20049;-60
2022/07/12 02:38:36;;;;;;;8.73;2.23;;;;;;;;;;5050783;28;20414;-59
2022/07/12 02:41:02;;;;;;;5.37;1.67;;;;;;;;;;5050908;28;20044;-59
2022/07/12 02:43:29;;;;;;;3.77;1.60;;;;;;;;;;5050438;28;20057;-59
2022/07/12 02:45:56;;;;;;;5.47;1.50;;;;;;;;;;5050280;28;20775;-60
2022/07/12 02:48:22;;;;;;;11.93;1.60;;;;;;;;;;5051060;28;20053;-59
2022/07/12 02:50:48;;;;;;;7.23;1.37;;;;;;;;;;5050970;28;20041;-59
2022/07/12 02:53:15;;;;;;;12.97;2.23;;;;;;;;;;5050348;28;20041;-59
2022/07/12 02:55:41;;;;;;;3.00;1.70;;;;;;;;;;5051046;28;20044;-59
2022/07/12 02:58:08;;;;;;;2.67;1.60;;;;;;;;;;5050622;28;20080;-59
2022/07/12 03:00:34;;;;;;;6.47;2.33;;;;;;;;;;5050433;28;20080;-59
2022/07/12 03:03:01;;;;;;;4.07;2.00;;;;;;;;;;5052897;28;20049;-60
2022/07/12 03:05:27;;;;;;;5.63;2.30;;;;;;;;;;5059513;28;20079;-59
2022/07/12 03:07:53;;;;;;;2.10;1.20;;;;;;;;;;5060328;28;20048;-59
2022/07/12 03:10:19;;;;;;;3.37;1.73;;;;;;;;;;5058820;28;20043;-59
2022/07/12 03:12:45;;;;;;;2.97;1.90;;;;;;;;;;5061399;28;20043;-59
2022/07/12 03:15:11;;;;;;;2.60;1.70;;;;;;;;;;5058186;28;20068;-59
2022/07/12 03:17:38;;;;;;;2.90;1.80;;;;;;;;;;5060729;28;20083;-59
2022/07/12 03:20:11;;;;;;;4.63;2.23;;;;;;;;;;5059100;28;20045;-59
2022/07/12 03:22:37;;;;;;;4.22;1.55;;;;;;;;;;5059060;28;20056;-59
2022/07/12 03:25:04;;;;;;;4.57;2.60;;;;;;;;;;5061491;28;20045;-59
2022/07/12 03:27:33;;;;;;;2.60;1.60;;;;;;;;;;5060294;28;20043;-59
2022/07/12 03:29:59;;;;;;;2.47;1.60;;;;;;;;;;5060650;28;20125;-59
2022/07/12 03:32:25;;;;;;;5.03;2.40;;;;;;;;;;5058937;28;20051;-59
2022/07/12 03:34:51;;;;;;;4.37;2.30;;;;;;;;;;5061206;28;20037;-59
2022/07/12 03:37:17;;;;;;;2.77;1.60;;;;;;;;;;5058958;28;20040;-59
2022/07/12 03:39:43;;;;;;;2.83;1.60;;;;;;;;;;5060711;28;20653;-60
2022/07/12 03:42:11;;;;;;;4.43;2.60;;;;;;;;;;5058801;28;20045;-59
2022/07/12 03:44:37;;;;;;;4.37;2.10;;;;;;;;;;5058408;28;20067;-60
2022/07/12 03:47:03;;;;;;;3.10;1.93;;;;;;;;;;5060026;28;20482;-59
2022/07/12 03:49:29;;;;;;;2.90;1.43;;;;;;;;;;5058588;28;20123;-59
2022/07/12 03:51:55;;;;;;;2.90;1.30;;;;;;;;;;5060585;28;20040;-60
2022/07/12 03:54:21;;;;;;;4.53;1.70;;;;;;;;;;5057655;28;20048;-60
2022/07/12 03:59:32;;;;;;;4.97;1.70;;;;;;;;;;5057059;28;20049;-59
2022/07/12 04:01:58;;;;;;;3.00;1.27;;;;;;;;;;5059326;28;20063;-59
2022/07/12 04:04:24;;;;;;;5.07;2.10;;;;;;;;;;5058949;28;20418;-59
2022/07/12 04:06:50;;;;;;;3.53;1.87;;;;;;;;;;5058023;28;20128;-59
2022/07/12 04:09:16;;;;;;;4.57;1.53;;;;;;;;;;5058464;28;20119;-60
2022/07/12 04:11:42;;;;;;;5.77;2.83;;;;;;;;;;5059465;28;20463;-60
2022/07/12 04:14:08;;;;;;;6.43;3.20;;;;;;;;;;5058154;28;20082;-59
2022/07/12 04:16:34;;;;;;;4.13;1.90;;;;;;;;;;5058029;28;20076;-60
2022/07/12 04:19:00;;;;;;;4.87;1.70;;;;;;;;;;5056766;28;20051;-59
2022/07/12 04:21:26;;;;;;;6.83;2.90;;;;;;;;;;5054411;28;20107;-59
2022/07/12 04:23:52;;;;;;;5.77;2.60;;;;;;;;;;5048143;28;20071;-59
2022/07/12 04:26:18;;;;;;;4.60;2.40;;;;;;;;;;5047477;28;20511;-59
2022/07/12 04:28:44;;;;;;;5.90;3.33;;;;;;;;;;5049451;28;20119;-60
2022/07/12 04:31:10;;;;;;;9.00;4.50;;;;;;;;;;5048815;28;20065;-59
2022/07/12 04:33:36;;;;;;;11.50;6.50;;;;;;;;;;5049225;28;20053;-59
2022/07/12 04:36:02;;;;;;;18.07;8.20;;;;;;;;;;5049322;28;20061;-60
2022/07/12 04:38:28;;;;;;;20.57;11.27;;;;;;;;;;5048915;28;20045;-60
2022/07/12 04:40:54;;;;;;;30.73;14.03;;;;;;;;;;5047767;28;20052;-60
2022/07/12 04:43:23;;;;;;;30.60;13.07;;;;;;;;;;5052153;28;20057;-60
2022/07/12 04:45:49;;;;;;;29.63;13.87;;;;;;;;;;5057365;28;20513;-59
2022/07/12 04:48:16;;;;;;;24.90;13.53;;;;;;;;;;5058523;28;20523;-59
2022/07/12 04:50:42;;;;;;;30.90;14.27;;;;;;;;;;5056249;28;20072;-59
2022/07/12 04:53:08;;;;;;;24.70;13.00;;;;;;;;;;5050580;28;20072;-60
2022/07/12 04:55:34;;;;;;;23.50;13.87;;;;;;;;;;5048430;28;20049;-60
2022/07/12 04:58:00;;;;;;;23.40;13.40;;;;;;;;;;5047678;28;20045;-60
2022/07/12 05:00:26;;;;;;;20.90;12.70;;;;;;;;;;5047936;28;20044;-60
2022/07/12 05:02:53;;;;;;;24.57;12.30;;;;;;;;;;5047477;28;20128;-60
2022/07/12 05:05:19;;;;;;;24.00;12.50;;;;;;;;;;5048427;28;20049;-60
2022/07/12 05:07:45;;;;;;;20.00;11.50;;;;;;;;;;5048038;28;20090;-60
2022/07/12 05:10:12;;;;;;;17.53;10.87;;;;;;;;;;5046835;28;20144;-60
2022/07/12 05:12:38;;;;;;;17.67;10.87;;;;;;;;;;5048152;28;20045;-60
2022/07/12 05:15:05;;;;;;;17.20;10.73;;;;;;;;;;5047518;28;20080;-61
2022/07/12 05:17:31;;;;;;;16.43;10.93;;;;;;;;;;5047660;28;20060;-60
2022/07/12 05:19:57;;;;;;;15.33;10.40;;;;;;;;;;5048012;28;20048;-60
2022/07/12 05:22:23;;;;;;;18.73;11.97;;;;;;;;;;5047651;28;20452;-60
2022/07/12 05:24:49;;;;;;;15.03;10.40;;;;;;;;;;5047717;28;20083;-60
2022/07/12 05:27:15;;;;;;;27.40;13.00;;;;;;;;;;5047164;28;20037;-61
2022/07/12 05:29:42;;;;;;;15.10;9.27;;;;;;;;;;5047791;28;20125;-61
2022/07/12 05:32:08;;;;;;;12.47;8.40;;;;;;;;;;5047553;28;20106;-61
2022/07/12 05:34:34;;;;;;;15.97;9.60;;;;;;;;;;5047088;28;20087;-61
2022/07/12 05:37:00;;;;;;;10.77;7.57;;;;;;;;;;5048023;28;20621;-60
2022/07/12 05:39:26;;;;;;;13.37;7.70;;;;;;;;;;5047346;28;20052;-61
2022/07/12 05:41:52;;;;;;;8.87;6.53;;;;;;;;;;5047358;28;20045;-61
2022/07/12 05:44:19;;;;;;;7.90;6.20;;;;;;;;;;5047443;28;20056;-61
2022/07/12 05:46:45;;;;;;;7.17;5.90;;;;;;;;;;5047492;28;20560;-61
2022/07/12 05:49:11;;;;;;;9.93;6.13;;;;;;;;;;5047725;28;20076;-61
2022/07/12 05:54:22;;;;;;;8.50;5.53;;;;;;;;;;5047572;28;20057;-60
2022/07/12 05:56:49;;;;;;;7.17;5.67;;;;;;;;;;5047306;28;20045;-62
2022/07/12 05:59:15;;;;;;;10.60;6.70;;;;;;;;;;5047677;28;20080;-61
2022/07/12 06:01:41;;;;;;;7.97;6.03;;;;;;;;;;5047482;28;20056;-61
2022/07/12 06:04:07;;;;;;;7.93;5.83;;;;;;;;;;5045253;28;20048;-61
2022/07/12 06:06:33;;;;;;;7.33;5.40;;;;;;;;;;5047230;28;20102;-61
2022/07/12 06:08:59;;;;;;;7.30;6.13;;;;;;;;;;5047642;28;20442;-61
2022/07/12 06:11:25;;;;;;;9.03;5.70;;;;;;;;;;5047028;28;20553;-61
2022/07/12 06:13:52;;;;;;;7.80;5.77;;;;;;;;;;5047206;28;20045;-60
2022/07/12 06:16:18;;;;;;;10.60;5.77;;;;;;;;;;5047424;28;20495;-60
2022/07/12 06:18:44;;;;;;;7.87;6.17;;;;;;;;;;5046760;28;20540;-61
2022/07/12 06:21:10;;;;;;;8.23;5.43;;;;;;;;;;5047130;28;20491;-61
2022/07/12 06:23:36;;;;;;;6.37;5.37;;;;;;;;;;5047097;28;20078;-61
2022/07/12 06:26:02;;;;;;;7.20;5.47;;;;;;;;;;5046182;28;20053;-60
2022/07/12 06:28:28;;;;;;;6.40;4.47;;;;;;;;;;5047066;28;20053;-61
2022/07/12 06:30:54;;;;;;;5.67;4.87;;;;;;;;;;5046561;28;20513;-61
2022/07/12 06:33:20;;;;;;;5.90;4.80;;;;;;;;;;5045981;28;20396;-61
2022/07/12 06:35:46;;;;;;;6.90;4.93;;;;;;;;;;5046954;28;20148;-60
2022/07/12 06:38:12;;;;;;;5.80;4.63;;;;;;;;;;5046932;28;20120;-60
2022/07/12 06:40:38;;;;;;;6.97;4.93;;;;;;;;;;5047060;28;20388;-60
2022/07/12 06:43:08;;;;;;;8.37;5.20;;;;;;;;;;5046853;28;20114;-60
2022/07/12 06:45:34;;;;;;;9.53;5.07;;;;;;;;;;5046984;28;20049;-60
2022/07/12 06:48:00;;;;;;;6.67;4.50;;;;;;;;;;5047201;28;20460;-60
2022/07/12 06:50:26;;;;;;;6.43;5.50;;;;;;;;;;5048030;28;20049;-60
2022/07/12 06:52:52;;;;;;;5.80;4.87;;;;;;;;;;5050847;28;20045;-60
2022/07/12 06:55:18;;;;;;;5.80;5.20;;;;;;;;;;5050730;28;20067;-61
2022/07/12 06:57:44;;;;;;;5.67;5.00;;;;;;;;;;5050003;28;20537;-61
2022/07/12 07:00:11;;;;;;;7.27;4.80;;;;;;;;;;5050429;28;20040;-61
2022/07/12 07:02:39;;;;;;;5.60;4.77;;;;;;;;;;5050392;28;20139;-61
2022/07/12 07:05:05;;;;;;;5.57;4.97;;;;;;;;;;5049832;28;20053;-61
2022/07/12 07:07:31;;;;;;;7.17;4.17;;;;;;;;;;5050223;28;20439;-61
2022/07/12 07:09:57;;;;;;;6.10;4.70;;;;;;;;;;5050552;28;20102;-61
2022/07/12 07:12:23;;;;;;;5.80;4.73;;;;;;;;;;5050493;28;20095;-60
2022/07/12 07:14:49;;;;;;;5.63;4.83;;;;;;;;;;5050177;28;20130;-61
2022/07/12 07:17:19;;;;;;;5.83;4.57;;;;;;;;;;5049881;28;20049;-61
2022/07/12 07:19:46;;;;;;;4.83;3.97;;;;;;;;;;5049985;28;20048;-60
2022/07/12 07:22:12;;;;;;;5.60;5.00;;;;;;;;;;5050141;28;20118;-60
2022/07/12 07:24:38;;;;;;;4.70;4.30;;;;;;;;;;5049818;28;20041;-60
2022/07/12 07:27:05;;;;;;;4.67;4.17;;;;;;;;;;5049917;28;20052;-61
2022/07/12 07:32:15;;;;;;;9.27;4.50;;;;;;;;;;5049904;28;20045;-60
2022/07/12 07:34:41;;;;;;;4.80;4.30;;;;;;;;;;5049515;28;20119;-60
2022/07/12 07:37:08;;;;;;;7.00;3.97;;;;;;;;;;5049691;28;20060;-60
2022/07/12 07:39:35;;;;;;;4.97;3.87;;;;;;;;;;5049699;28;20438;-60
2022/07/12 07:42:01;;;;;;;4.53;4.13;;;;;;;;;;5049392;28;20057;-60
2022/07/12 07:44:27;;;;;;;4.10;3.70;;;;;;;;;;5049273;28;20061;-60
2022/07/12 07:46:53;;;;;;;6.87;3.57;;;;;;;;;;5049381;28;20610;-61
2022/07/12 07:49:19;;;;;;;3.97;3.30;;;;;;;;;;5049709;28;20086;-61
2022/07/12 07:51:45;;;;;;;3.10;2.50;;;;;;;;;;5049365;28;20041;-61
2022/07/12 07:54:11;;;;;;;4.90;2.93;;;;;;;;;;5049244;28;20041;-61
2022/07/12 07:56:37;;;;;;;4.93;3.67;;;;;;;;;;5049023;28;20048;-60
2022/07/12 07:59:04;;;;;;;3.57;3.00;;;;;;;;;;5049249;28;20404;-61
2022/07/12 08:01:42;;;;;;;5.47;2.80;;;;;;;;;;5048290;28;20053;-61
2022/07/12 08:04:18;;;;;;;2.93;2.43;;;;;;;;;;5049224;28;20045;-60
2022/07/12 08:06:44;;;;;;;3.90;2.50;;;;;;;;;;5049104;28;20052;-60
2022/07/12 08:09:11;;;;;;;4.90;2.70;;;;;;;;;;5049447;28;20045;-61
2022/07/12 08:11:37;;;;;;;4.27;2.83;;;;;;;;;;5048243;28;20055;-61
2022/07/12 08:14:03;;;;;;;2.87;2.30;;;;;;;;;;5049053;28;20045;-60
2022/07/12 08:16:30;;;;;;;3.40;2.43;;;;;;;;;;5048836;28;20055;-61
2022/07/12 08:18:56;;;;;;;4.53;2.60;;;;;;;;;;5048665;28;20051;-61
2022/07/12 08:21:22;;;;;;;4.07;3.00;;;;;;;;;;5049057;28;20455;-61
2022/07/12 08:23:48;;;;;;;4.77;2.83;;;;;;;;;;5048307;28;20163;-60
2022/07/12 08:26:15;;;;;;;4.10;3.57;;;;;;;;;;5048718;28;20537;-60
2022/07/12 08:28:41;;;;;;;2.60;2.30;;;;;;;;;;5048491;28;20037;-60
2022/07/12 08:31:07;;;;;;;2.90;2.60;;;;;;;;;;5049134;28;20128;-60
2022/07/12 08:33:33;;;;;;;5.00;2.90;;;;;;;;;;5048608;28;20041;-61
2022/07/12 08:35:59;;;;;;;4.88;3.00;;;;;;;;;;5048341;28;20094;-61
2022/07/12 08:38:25;;;;;;;2.95;2.30;;;;;;;;;;5048426;28;20051;-61
2022/07/12 08:40:52;;;;;;;2.20;1.90;;;;;;;;;;5048715;28;20361;-61
2022/07/12 08:43:18;;;;;;;3.40;2.50;;;;;;;;;;5048057;28;20164;-61
2022/07/12 08:45:44;;;;;;;4.22;2.80;;;;;;;;;;5048877;28;20506;-61
2022/07/12 08:48:10;;;;;;;3.65;2.45;;;;;;;;;;5048160;28;20045;-61
2022/07/12 08:50:36;;;;;;;4.10;2.00;;;;;;;;;;5048461;28;20040;-61
2022/07/12 08:53:02;;;;;;;2.20;1.73;;;;;;;;;;5048699;28;20132;-61
2022/07/12 08:55:33;;;;;;;4.40;2.05;;;;;;;;;;5048398;28;20052;-61
2022/07/12 08:58:02;;;;;;;3.35;2.35;;;;;;;;;;5048209;28;20053;-61
2022/07/12 09:00:28;;;;;;;3.50;2.60;;;;;;;;;;5048500;28;20045;-61
2022/07/12 09:02:55;;;;;;;4.25;2.30;;;;;;;;;;5047580;28;20522;-61
2022/07/12 09:05:22;;;;;;;3.28;2.15;;;;;;;;;;5048057;28;20044;-60
2022/07/12 09:07:49;;;;;;;2.40;1.75;;;;;;;;;;5048045;28;20045;-60
2022/07/12 09:10:15;;;;;;;2.47;2.20;;;;;;;;;;5048112;28;20041;-61
2022/07/12 09:12:42;;;;;;;3.20;2.25;;;;;;;;;;5047545;28;20045;-60
2022/07/12 09:15:11;;;;;;;4.40;2.42;;;;;;;;;;5047581;28;20049;-61
2022/07/12 09:17:37;;;;;;;3.58;2.45;;;;;;;;;;5047998;28;20128;-61
2022/07/12 09:20:04;;;;;;;2.90;2.30;;;;;;;;;;5048061;28;20124;-60
2022/07/12 09:22:30;;;;;;;4.32;2.40;;;;;;;;;;5047661;28;20562;-61
2022/07/12 09:24:56;;;;;;;2.38;2.10;;;;;;;;;;5047629;28;20187;-60
2022/07/12 09:27:25;;;;;;;4.75;1.90;;;;;;;;;;5047293;28;20147;-61
2022/07/12 09:29:52;;;;;;;3.22;2.35;;;;;;;;;;5047540;28;20465;-61
2022/07/12 09:37:48;;;;;;;4.20;2.70;;;;;;;;;;5047222;28;20049;-61
2022/07/12 09:40:14;;;;;;;4.68;2.90;;;;;;;;;;5047374;28;20091;-61
2022/07/12 09:42:41;;;;;;;3.00;2.17;;;;;;;;;;5047751;28;20063;-61
2022/07/12 09:45:09;;;;;;;2.92;2.10;;;;;;;;;;5047827;28;20048;-61
2022/07/12 09:47:35;;;;;;;2.30;1.88;;;;;;;;;;5047303;28;20094;-61
2022/07/12 09:50:01;;;;;;;4.18;2.20;;;;;;;;;;5047400;28;20067;-61
2022/07/12 09:52:28;;;;;;;3.70;2.33;;;;;;;;;;5047607;28;20041;-60
2022/07/12 09:54:55;;;;;;;4.05;3.05;;;;;;;;;;5047091;28;20392;-61
2022/07/12 09:57:21;;;;;;;2.90;1.88;;;;;;;;;;5047219;28;20373;-62
2022/07/12 09:59:48;;;;;;;3.63;1.90;;;;;;;;;;5047136;28;20056;-61
2022/07/12 10:02:15;;;;;;;2.63;2.25;;;;;;;;;;5047522;28;20167;-61
2022/07/12 10:04:42;;;;;;;3.33;2.13;;;;;;;;;;5047396;28;20119;-61
2022/07/12 10:07:09;;;;;;;4.05;2.10;;;;;;;;;;5047574;28;20175;-62
2022/07/12 10:09:36;;;;;;;3.45;2.13;;;;;;;;;;5047362;28;20423;-62
2022/07/12 10:12:03;;;;;;;2.40;1.92;;;;;;;;;;5046735;28;20127;-61
2022/07/12 10:14:29;;;;;;;2.58;1.80;;;;;;;;;;5047255;28;20045;-62
2022/07/12 10:16:57;;;;;;;2.10;1.73;;;;;;;;;;5047047;28;20041;-62
2022/07/12 10:19:26;;;;;;;2.70;2.05;;;;;;;;;;5046817;28;20048;-59
2022/07/12 10:21:54;;;;;;;2.55;1.67;;;;;;;;;;5047158;28;20507;-59
2022/07/12 10:24:33;;;;;;;2.28;1.40;;;;;;;;;;5047347;28;20045;-59
2022/07/12 10:27:14;;;;;;;4.18;1.90;;;;;;;;;;5050820;28;20037;-59
2022/07/12 10:29:44;;;;;;;1.92;1.50;;;;;;;;;;5051148;28;20044;-59
2022/07/12 10:32:24;;;;;;;2.10;1.30;;;;;;;;;;5050685;28;20037;-59
2022/07/12 10:35:05;;;;;;;4.15;1.67;;;;;;;;;;5050736;28;20076;-59
2022/07/12 10:37:31;;;;;;;3.30;1.70;;;;;;;;;;5050802;28;20052;-59
2022/07/12 10:40:12;;;;;;;3.13;1.92;;;;;;;;;;5050834;28;20048;-59
2022/07/12 10:42:39;;;;;;;3.17;1.75;;;;;;;;;;5050022;28;20521;-61
2022/07/12 10:45:17;;;;;;;2.05;1.52;;;;;;;;;;5050697;28;20056;-60
2022/07/12 10:48:00;;;;;;;2.92;1.63;;;;;;;;;;5051074;28;20045;-59
2022/07/12 10:53:22;;;;;;;3.75;1.60;;;;;;;;;;5050456;28;20100;-59
2022/07/12 10:56:06;;;;;;;1.85;1.40;;;;;;;;;;5049888;28;20061;-59
2022/07/12 10:58:35;;;;;;;1.55;0.77;;;;;;;;;;5050624;28;20053;-59
2022/07/12 11:01:06;;;;;;;3.95;1.67;;;;;;;;;;5050716;28;20053;-59
2022/07/12 11:03:35;;;;;;;3.78;1.30;;;;;;;;;;5050423;28;20511;-59
2022/07/12 11:06:04;;;;;;;3.72;1.20;;;;;;;;;;5049980;28;20418;-59
2022/07/12 11:08:31;;;;;;;1.80;1.20;;;;;;;;;;5050564;28;20048;-59
2022/07/12 11:10:57;;;;;;;4.45;1.00;;;;;;;;;;5050347;28;20087;-59
2022/07/12 11:13:24;;;;;;;2.05;1.10;;;;;;;;;;5049528;28;20581;-59
2022/07/12 11:16:00;;;;;;;3.67;1.38;;;;;;;;;;5050161;28;20076;-61
2022/07/12 11:18:33;;;;;;;1.70;1.10;;;;;;;;;;5050380;28;20041;-61
2022/07/12 11:20:59;;;;;;;3.03;1.98;;;;;;;;;;5049534;28;20615;-61
2022/07/12 11:23:29;;;;;;;1.90;1.23;;;;;;;;;;5049837;28;20056;-61
2022/07/12 11:25:55;;;;;;;5.85;1.40;;;;;;;;;;5049957;28;20041;-60
2022/07/12 11:28:22;;;;;;;2.65;1.35;;;;;;;;;;5049643;28;20052;-61
2022/07/12 11:30:49;;;;;;;1.70;0.82;;;;;;;;;;5049910;28;20049;-60
2022/07/12 11:33:15;;;;;;;2.00;1.00;;;;;;;;;;5049702;28;20502;-60
2022/07/12 11:35:43;;;;;;;1.58;0.90;;;;;;;;;;5049265;28;20056;-60
2022/07/12 11:38:09;;;;;;;1.33;0.88;;;;;;;;;;5049861;28;20094;-61
2022/07/12 11:40:35;;;;;;;2.00;1.20;;;;;;;;;;5049413;28;20041;-61
2022/07/12 11:43:03;;;;;;;1.70;0.98;;;;;;;;;;5049376;28;20053;-61
2022/07/12 11:45:30;;;;;;;0.85;0.68;;;;;;;;;;5049853;28;20049;-61
2022/07/12 11:48:00;;;;;;;1.63;0.80;;;;;;;;;;5049615;28;20106;-61
2022/07/12 11:50:26;;;;;;;2.67;0.80;;;;;;;;;;5049038;28;20048;-61
2022/07/12 11:52:52;;;;;;;1.30;1.05;;;;;;;;;;5049221;28;20057;-60
2022/07/12 11:55:18;;;;;;;1.60;0.88;;;;;;;;;;5049533;28;20053;-61
2022/07/12 11:57:44;;;;;;;4.28;0.70;;;;;;;;;;5048998;28;20044;-61
2022/07/12 12:00:14;;;;;;;0.98;0.60;;;;;;;;;;5049706;28;20105;-61
2022/07/12 12:02:40;;;;;;;1.33;0.40;;;;;;;;;;5048711;28;20049;-60
2022/07/12 12:05:06;;;;;;;1.02;0.50;;;;;;;;;;5049163;28;20053;-60
2022/07/12 12:07:32;;;;;;;3.92;0.55;;;;;;;;;;5049251;28;20372;-60
2022/07/12 12:10:13;;;;;;;2.47;0.70;;;;;;;;;;5049274;28;20041;-60
2022/07/12 12:12:51;;;;;;;3.20;0.68;;;;;;;;;;5048583;28;20040;-60
2022/07/12 12:15:18;;;;;;;3.15;0.82;;;;;;;;;;5049464;28;20106;-60
2022/07/12 12:18:03;;;;;;;1.45;0.50;;;;;;;;;;5049344;28;20049;-60
2022/07/12 12:20:33;;;;;;;1.25;0.50;;;;;;;;;;5048915;28;20122;-60
2022/07/12 12:23:03;;;;;;;1.30;0.55;;;;;;;;;;5049043;28;20051;-60
2022/07/12 12:25:30;;;;;;;0.77;0.55;;;;;;;;;;5049159;28;20052;-60
2022/07/12 12:27:57;;;;;;;1.95;0.63;;;;;;;;;;5048391;28;20488;-60
2022/07/12 12:30:24;;;;;;;2.13;0.80;;;;;;;;;;5048716;28;20056;-60
2022/07/12 12:32:54;;;;;;;0.60;0.40;;;;;;;;;;5048740;28;20522;-61
2022/07/12 12:35:23;;;;;;;1.63;0.60;;;;;;;;;;5049086;28;20053;-60
2022/07/12 12:37:53;;;;;;;0.77;0.50;;;;;;;;;;5048571;28;20174;-60
2022/07/12 12:40:21;;;;;;;1.95;0.70;;;;;;;;;;5048904;28;20391;-60
2022/07/12 12:42:47;;;;;;;1.08;0.60;;;;;;;;;;5047815;28;20061;-60
2022/07/12 12:45:23;;;;;;;2.42;0.60;;;;;;;;;;5048442;28;20408;-60
2022/07/12 12:47:53;;;;;;;1.58;0.60;;;;;;;;;;5047812;28;20048;-60
2022/07/12 12:50:35;;;;;;;1.67;0.70;;;;;;;;;;5048388;28;20510;-60
2022/07/12 12:53:06;;;;;;;1.23;0.65;;;;;;;;;;5048208;28;20097;-60
2022/07/12 12:55:32;;;;;;;0.82;0.50;;;;;;;;;;5048469;28;20041;-61
2022/07/12 12:58:00;;;;;;;2.78;0.50;;;;;;;;;;5047932;28;20048;-60
2022/07/12 13:00:26;;;;;;;1.83;0.50;;;;;;;;;;5048231;28;20045;-61
2022/07/12 13:02:52;;;;;;;0.88;0.40;;;;;;;;;;5048067;28;20118;-60
2022/07/12 13:05:18;;;;;;;0.50;0.40;;;;;;;;;;5047700;28;20045;-61
2022/07/12 13:07:44;;;;;;;0.93;0.40;;;;;;;;;;5047914;28;20041;-61
2022/07/12 13:10:10;;;;;;;1.35;0.40;;;;;;;;;;5048241;28;20075;-60
2022/07/12 13:12:36;;;;;;;1.42;0.50;;;;;;;;;;5048164;28;20052;-60
2022/07/12 13:15:02;;;;;;;2.83;0.80;;;;;;;;;;5048265;28;20557;-60
2022/07/12 13:17:29;;;;;;;1.17;0.55;;;;;;;;;;5047516;28;20048;-60
2022/07/12 13:19:55;;;;;;;4.88;0.52;;;;;;;;;;5047908;28;20072;-60
2022/07/12 13:22:21;;;;;;;1.38;0.50;;;;;;;;;;5047837;28;20110;-60
2022/07/12 13:24:48;;;;;;;1.25;0.60;;;;;;;;;;5047822;28;20052;-60
2022/07/12 13:27:15;;;;;;;3.17;0.60;;;;;;;;;;5047665;28;20052;-60
2022/07/12 13:29:41;;;;;;;2.58;0.52;;;;;;;;;;5047063;28;20052;-60
2022/07/12 13:32:07;;;;;;;2.90;0.85;;;;;;;;;;5047981;28;20041;-61
2022/07/12 13:34:33;;;;;;;2.25;0.70;;;;;;;;;;5047615;28;20095;-61
2022/07/12 13:36:59;;;;;;;2.15;1.10;;;;;;;;;;5047598;28;20048;-61
2022/07/12 13:42:10;;;;;;;3.10;0.80;;;;;;;;;;5047086;28;20555;-60
2022/07/12 13:44:36;;;;;;;3.50;0.70;;;;;;;;;;5047462;28;20404;-61
2022/07/12 13:47:02;;;;;;;2.47;0.70;;;;;;;;;;5051916;28;20041;-60
2022/07/12 13:49:28;;;;;;;3.47;0.80;;;;;;;;;;5056328;28;20568;-60
2022/07/12 13:51:54;;;;;;;3.47;1.60;;;;;;;;;;5055467;28;20055;-60
2022/07/12 13:54:21;;;;;;;3.75;0.95;;;;;;;;;;5055552;28;20041;-61
2022/07/12 13:56:50;;;;;;;1.60;0.85;;;;;;;;;;5058870;28;20041;-60
2022/07/12 13:59:16;;;;;;;2.47;0.63;;;;;;;;;;5057434;28;20040;-60
2022/07/12 14:01:43;;;;;;;2.20;0.57;;;;;;;;;;5061099;28;20128;-60
2022/07/12 14:04:09;;;;;;;2.20;0.57;;;;;;;;;;5061742;28;20045;-60
2022/07/12 14:06:35;;;;;;;1.38;0.60;;;;;;;;;;5059500;28;20656;-60
2022/07/12 14:09:01;;;;;;;2.38;0.98;;;;;;;;;;5061228;28;20406;-60
2022/07/12 14:11:27;;;;;;;1.00;0.50;;;;;;;;;;5062146;28;20052;-60
2022/07/12 14:13:54;;;;;;;2.55;0.50;;;;;;;;;;5061721;28;20044;-60
2022/07/12 14:16:21;;;;;;;1.40;0.63;;;;;;;;;;5060106;28;20103;-60
2022/07/12 14:18:47;;;;;;;0.80;0.50;;;;;;;;;;5062364;28;20583;-60
2022/07/12 14:21:13;;;;;;;2.85;0.70;;;;;;;;;;5061961;28;20040;-60
2022/07/12 14:23:40;;;;;;;1.33;0.60;;;;;;;;;;5059852;28;20418;-60
2022/07/12 14:26:06;;;;;;;2.65;0.85;;;;;;;;;;5060392;28;20496;-61
2022/07/12 14:28:33;;;;;;;2.75;1.05;;;;;;;;;;5061127;28;20506;-61
2022/07/12 14:30:59;;;;;;;1.88;0.80;;;;;;;;;;5061331;28;20123;-61
2022/07/12 14:33:25;;;;;;;1.67;0.70;;;;;;;;;;5060581;28;20080;-60
2022/07/12 14:35:51;;;;;;;2.85;0.60;;;;;;;;;;5056111;28;20086;-61
2022/07/12 14:38:17;;;;;;;1.45;0.70;;;;;;;;;;5060183;28;20487;-61
2022/07/12 14:40:43;;;;;;;2.30;0.70;;;;;;;;;;5058751;28;20074;-60
2022/07/12 14:43:10;;;;;;;3.30;0.60;;;;;;;;;;5058093;28;20096;-61
2022/07/12 14:45:36;;;;;;;1.23;0.50;;;;;;;;;;5053956;28;20045;-60
2022/07/12 14:48:02;;;;;;;1.67;0.70;;;;;;;;;;5060721;28;20047;-60
2022/07/12 14:50:28;;;;;;;2.30;0.70;;;;;;;;;;5060759;28;20049;-61
2022/07/12 14:52:54;;;;;;;3.45;0.80;;;;;;;;;;5061767;28;20495;-60
2022/07/12 14:55:20;;;;;;;3.03;0.65;;;;;;;;;;5060117;28;20475;-61
2022/07/12 14:57:46;;;;;;;1.50;0.50;;;;;;;;;;5061561;28;20040;-60
2022/07/12 15:00:12;;;;;;;2.83;0.80;;;;;;;;;;5061711;28;20045;-61